sensor_id;sensor_type;location;lat;lon;timestamp;P1;durP1;ratioP1;P2;durP2;ratioP2
67065;SDS011;53978;43.846;25.952;2022-12-15T00:01:58;6.75;;;3.38;;
67065;SDS011;53978;43.846;25.952;2022-12-15T00:04:43;6.80;;;3.33;;
67065;SDS011;53978;43.846;25.952;2022-12-15T00:07:27;5.32;;;3.53;;
67065;SDS011;53978;43.846;25.952;2022-12-15T00:10:14;8.60;;;3.95;;
67065;SDS011;53978;43.846;25.952;2022-12-15T00:12:58;6.97;;;3.33;;
67065;SDS011;53978;43.846;25.952;2022-12-15T00:15:44;8.85;;;3.67;;
67065;SDS011;53978;43.846;25.952;2022-12-15T00:18:28;6.80;;;4.03;;
67065;SDS011;53978;43.846;25.952;2022-12-15T00:21:12;9.05;;;4.18;;
67065;SDS011;53978;43.846;25.952;2022-12-15T00:23:59;8.20;;;3.78;;
67065;SDS011;53978;43.846;25.952;2022-12-15T00:26:43;8.02;;;3.20;;
67065;SDS011;53978;43.846;25.952;2022-12-15T00:29:27;6.78;;;3.88;;
67065;SDS011;53978;43.846;25.952;2022-12-15T00:32:11;7.95;;;3.45;;
67065;SDS011;53978;43.846;25.952;2022-12-15T00:34:55;13.95;;;3.83;;
67065;SDS011;53978;43.846;25.952;2022-12-15T00:37:39;8.43;;;3.65;;
67065;SDS011;53978;43.846;25.952;2022-12-15T00:40:25;9.05;;;4.00;;
67065;SDS011;53978;43.846;25.952;2022-12-15T00:42:51;8.65;;;4.63;;
67065;SDS011;53978;43.846;25.952;2022-12-15T00:45:16;9.27;;;4.63;;
67065;SDS011;53978;43.846;25.952;2022-12-15T00:47:41;7.65;;;4.15;;
67065;SDS011;53978;43.846;25.952;2022-12-15T00:50:07;10.35;;;3.70;;
67065;SDS011;53978;43.846;25.952;2022-12-15T00:52:51;6.30;;;3.55;;
67065;SDS011;53978;43.846;25.952;2022-12-15T00:55:35;9.70;;;3.17;;
67065;SDS011;53978;43.846;25.952;2022-12-15T00:58:19;9.70;;;3.00;;
67065;SDS011;53978;43.846;25.952;2022-12-15T01:01:09;7.57;;;3.35;;
67065;SDS011;53978;43.846;25.952;2022-12-15T01:03:53;7.47;;;3.70;;
67065;SDS011;53978;43.846;25.952;2022-12-15T01:06:38;6.00;;;3.65;;
67065;SDS011;53978;43.846;25.952;2022-12-15T01:09:22;5.97;;;3.50;;
67065;SDS011;53978;43.846;25.952;2022-12-15T01:12:06;6.80;;;3.40;;
67065;SDS011;53978;43.846;25.952;2022-12-15T01:14:50;6.47;;;3.45;;
67065;SDS011;53978;43.846;25.952;2022-12-15T01:17:34;6.15;;;3.75;;
67065;SDS011;53978;43.846;25.952;2022-12-15T01:20:18;6.47;;;3.75;;
67065;SDS011;53978;43.846;25.952;2022-12-15T01:22:47;10.65;;;4.45;;
67065;SDS011;53978;43.846;25.952;2022-12-15T01:25:15;7.80;;;4.35;;
67065;SDS011;53978;43.846;25.952;2022-12-15T01:27:42;10.13;;;3.55;;
67065;SDS011;53978;43.846;25.952;2022-12-15T01:30:09;7.43;;;3.70;;
67065;SDS011;53978;43.846;25.952;2022-12-15T01:32:36;8.13;;;4.50;;
67065;SDS011;53978;43.846;25.952;2022-12-15T01:35:03;10.32;;;5.72;;
67065;SDS011;53978;43.846;25.952;2022-12-15T01:37:29;12.23;;;6.93;;
67065;SDS011;53978;43.846;25.952;2022-12-15T01:39:57;12.25;;;7.45;;
67065;SDS011;53978;43.846;25.952;2022-12-15T01:42:41;12.65;;;7.38;;
67065;SDS011;53978;43.846;25.952;2022-12-15T01:45:33;15.80;;;8.02;;
67065;SDS011;53978;43.846;25.952;2022-12-15T01:51:03;16.40;;;9.25;;
67065;SDS011;53978;43.846;25.952;2022-12-15T01:53:42;13.88;;;8.35;;
67065;SDS011;53978;43.846;25.952;2022-12-15T01:56:12;16.02;;;7.90;;
67065;SDS011;53978;43.846;25.952;2022-12-15T01:58:40;17.17;;;9.43;;
67065;SDS011;53978;43.846;25.952;2022-12-15T02:01:09;19.08;;;9.48;;
67065;SDS011;53978;43.846;25.952;2022-12-15T02:03:34;18.13;;;9.77;;
67065;SDS011;53978;43.846;25.952;2022-12-15T02:06:00;18.13;;;9.55;;
67065;SDS011;53978;43.846;25.952;2022-12-15T02:08:27;16.48;;;9.23;;
67065;SDS011;53978;43.846;25.952;2022-12-15T02:11:00;15.20;;;8.68;;
67065;SDS011;53978;43.846;25.952;2022-12-15T02:13:45;18.35;;;9.27;;
67065;SDS011;53978;43.846;25.952;2022-12-15T02:27:31;16.67;;;9.00;;
67065;SDS011;53978;43.846;25.952;2022-12-15T02:32:44;14.30;;;8.43;;
67065;SDS011;53978;43.846;25.952;2022-12-15T02:35:36;12.95;;;7.75;;
67065;SDS011;53978;43.846;25.952;2022-12-15T02:38:27;18.20;;;8.73;;
67065;SDS011;53978;43.846;25.952;2022-12-15T02:40:57;19.85;;;9.40;;
67065;SDS011;53978;43.846;25.952;2022-12-15T02:43:23;17.85;;;9.75;;
67065;SDS011;53978;43.846;25.952;2022-12-15T02:46:05;16.30;;;9.20;;
67065;SDS011;53978;43.846;25.952;2022-12-15T02:49:08;16.00;;;8.57;;
67065;SDS011;53978;43.846;25.952;2022-12-15T02:51:48;19.98;;;8.80;;
67065;SDS011;53978;43.846;25.952;2022-12-15T02:54:31;15.80;;;8.70;;
67065;SDS011;53978;43.846;25.952;2022-12-15T02:59:45;15.32;;;7.85;;
67065;SDS011;53978;43.846;25.952;2022-12-15T03:02:27;16.75;;;8.65;;
67065;SDS011;53978;43.846;25.952;2022-12-15T03:04:55;18.55;;;9.13;;
67065;SDS011;53978;43.846;25.952;2022-12-15T03:07:21;15.93;;;9.18;;
67065;SDS011;53978;43.846;25.952;2022-12-15T03:09:47;16.73;;;9.23;;
67065;SDS011;53978;43.846;25.952;2022-12-15T03:12:15;17.50;;;8.82;;
67065;SDS011;53978;43.846;25.952;2022-12-15T03:14:43;18.25;;;8.40;;
67065;SDS011;53978;43.846;25.952;2022-12-15T03:17:08;17.73;;;9.98;;
67065;SDS011;53978;43.846;25.952;2022-12-15T03:19:34;14.95;;;8.30;;
67065;SDS011;53978;43.846;25.952;2022-12-15T03:21:59;16.67;;;8.60;;
67065;SDS011;53978;43.846;25.952;2022-12-15T03:24:25;19.05;;;9.15;;
67065;SDS011;53978;43.846;25.952;2022-12-15T03:26:50;17.98;;;9.05;;
67065;SDS011;53978;43.846;25.952;2022-12-15T03:29:17;18.85;;;8.73;;
67065;SDS011;53978;43.846;25.952;2022-12-15T03:31:43;14.43;;;8.50;;
67065;SDS011;53978;43.846;25.952;2022-12-15T03:42:42;12.93;;;7.22;;
67065;SDS011;53978;43.846;25.952;2022-12-15T03:45:18;14.48;;;8.60;;
67065;SDS011;53978;43.846;25.952;2022-12-15T03:47:48;13.73;;;7.72;;
67065;SDS011;53978;43.846;25.952;2022-12-15T03:50:15;14.75;;;8.38;;
67065;SDS011;53978;43.846;25.952;2022-12-15T03:52:42;16.58;;;8.07;;
67065;SDS011;53978;43.846;25.952;2022-12-15T03:55:08;20.08;;;8.70;;
67065;SDS011;53978;43.846;25.952;2022-12-15T03:57:34;15.73;;;8.05;;
67065;SDS011;53978;43.846;25.952;2022-12-15T03:59:59;18.77;;;8.85;;
67065;SDS011;53978;43.846;25.952;2022-12-15T04:02:25;16.35;;;8.45;;
67065;SDS011;53978;43.846;25.952;2022-12-15T04:04:51;13.85;;;8.40;;
67065;SDS011;53978;43.846;25.952;2022-12-15T04:07:16;16.63;;;8.75;;
67065;SDS011;53978;43.846;25.952;2022-12-15T04:09:42;16.00;;;8.52;;
67065;SDS011;53978;43.846;25.952;2022-12-15T04:12:09;15.20;;;8.50;;
67065;SDS011;53978;43.846;25.952;2022-12-15T04:14:35;17.02;;;9.63;;
67065;SDS011;53978;43.846;25.952;2022-12-15T04:17:06;14.15;;;8.27;;
67065;SDS011;53978;43.846;25.952;2022-12-15T04:19:35;14.10;;;8.30;;
67065;SDS011;53978;43.846;25.952;2022-12-15T04:22:19;18.13;;;8.45;;
67065;SDS011;53978;43.846;25.952;2022-12-15T04:24:44;16.73;;;8.52;;
67065;SDS011;53978;43.846;25.952;2022-12-15T04:27:28;15.60;;;8.60;;
67065;SDS011;53978;43.846;25.952;2022-12-15T04:30:12;17.45;;;9.18;;
67065;SDS011;53978;43.846;25.952;2022-12-15T04:32:56;18.23;;;8.90;;
67065;SDS011;53978;43.846;25.952;2022-12-15T04:38:25;12.70;;;7.35;;
67065;SDS011;53978;43.846;25.952;2022-12-15T04:41:10;16.55;;;9.15;;
67065;SDS011;53978;43.846;25.952;2022-12-15T04:43:55;11.90;;;7.32;;
67065;SDS011;53978;43.846;25.952;2022-12-15T04:46:39;15.60;;;7.80;;
67065;SDS011;53978;43.846;25.952;2022-12-15T04:49:23;17.75;;;8.45;;
67065;SDS011;53978;43.846;25.952;2022-12-15T04:52:07;13.52;;;7.88;;
67065;SDS011;53978;43.846;25.952;2022-12-15T04:54:51;15.80;;;8.10;;
67065;SDS011;53978;43.846;25.952;2022-12-15T04:57:35;17.35;;;9.50;;
67065;SDS011;53978;43.846;25.952;2022-12-15T05:00:19;19.92;;;8.57;;
67065;SDS011;53978;43.846;25.952;2022-12-15T05:03:04;20.73;;;8.87;;
67065;SDS011;53978;43.846;25.952;2022-12-15T05:05:48;19.33;;;8.70;;
67065;SDS011;53978;43.846;25.952;2022-12-15T05:08:32;17.85;;;8.55;;
67065;SDS011;53978;43.846;25.952;2022-12-15T05:11:16;16.53;;;8.47;;
67065;SDS011;53978;43.846;25.952;2022-12-15T05:14:00;14.43;;;8.27;;
67065;SDS011;53978;43.846;25.952;2022-12-15T05:16:44;15.65;;;7.97;;
67065;SDS011;53978;43.846;25.952;2022-12-15T05:19:28;17.02;;;8.63;;
67065;SDS011;53978;43.846;25.952;2022-12-15T05:22:12;18.55;;;9.65;;
67065;SDS011;53978;43.846;25.952;2022-12-15T05:24:59;16.95;;;9.38;;
67065;SDS011;53978;43.846;25.952;2022-12-15T05:27:43;19.25;;;8.52;;
67065;SDS011;53978;43.846;25.952;2022-12-15T05:30:26;11.63;;;7.32;;
67065;SDS011;53978;43.846;25.952;2022-12-15T05:33:10;13.23;;;7.22;;
67065;SDS011;53978;43.846;25.952;2022-12-15T05:35:36;13.65;;;7.28;;
67065;SDS011;53978;43.846;25.952;2022-12-15T05:38:03;14.48;;;7.25;;
67065;SDS011;53978;43.846;25.952;2022-12-15T05:40:29;13.10;;;7.57;;
67065;SDS011;53978;43.846;25.952;2022-12-15T05:43:07;15.60;;;7.28;;
67065;SDS011;53978;43.846;25.952;2022-12-15T05:45:37;14.27;;;7.10;;
67065;SDS011;53978;43.846;25.952;2022-12-15T05:48:03;11.77;;;6.72;;
67065;SDS011;53978;43.846;25.952;2022-12-15T05:50:28;13.45;;;7.25;;
67065;SDS011;53978;43.846;25.952;2022-12-15T05:52:57;12.73;;;7.03;;
67065;SDS011;53978;43.846;25.952;2022-12-15T05:55:23;12.27;;;6.70;;
67065;SDS011;53978;43.846;25.952;2022-12-15T05:57:52;15.82;;;7.07;;
67065;SDS011;53978;43.846;25.952;2022-12-15T06:00:18;12.88;;;6.55;;
67065;SDS011;53978;43.846;25.952;2022-12-15T06:02:44;9.88;;;6.05;;
67065;SDS011;53978;43.846;25.952;2022-12-15T06:05:09;11.40;;;6.35;;
67065;SDS011;53978;43.846;25.952;2022-12-15T06:07:34;10.35;;;6.35;;
67065;SDS011;53978;43.846;25.952;2022-12-15T06:10:01;13.32;;;6.47;;
67065;SDS011;53978;43.846;25.952;2022-12-15T06:12:27;9.40;;;5.63;;
67065;SDS011;53978;43.846;25.952;2022-12-15T06:14:52;11.43;;;5.88;;
67065;SDS011;53978;43.846;25.952;2022-12-15T06:17:18;11.95;;;6.05;;
67065;SDS011;53978;43.846;25.952;2022-12-15T06:19:45;10.27;;;5.88;;
67065;SDS011;53978;43.846;25.952;2022-12-15T06:22:11;12.57;;;5.95;;
67065;SDS011;53978;43.846;25.952;2022-12-15T06:24:38;9.82;;;6.00;;
67065;SDS011;53978;43.846;25.952;2022-12-15T06:27:04;15.10;;;7.38;;
67065;SDS011;53978;43.846;25.952;2022-12-15T06:29:29;13.23;;;6.50;;
67065;SDS011;53978;43.846;25.952;2022-12-15T06:31:55;13.00;;;6.22;;
67065;SDS011;53978;43.846;25.952;2022-12-15T06:34:20;12.93;;;6.63;;
67065;SDS011;53978;43.846;25.952;2022-12-15T06:36:45;17.58;;;8.13;;
67065;SDS011;53978;43.846;25.952;2022-12-15T06:39:12;13.43;;;7.97;;
67065;SDS011;53978;43.846;25.952;2022-12-15T06:41:39;13.40;;;8.35;;
67065;SDS011;53978;43.846;25.952;2022-12-15T06:44:05;11.32;;;6.68;;
67065;SDS011;53978;43.846;25.952;2022-12-15T06:46:31;9.43;;;5.65;;
67065;SDS011;53978;43.846;25.952;2022-12-15T06:48:57;11.50;;;6.53;;
67065;SDS011;53978;43.846;25.952;2022-12-15T06:51:23;11.15;;;6.85;;
67065;SDS011;53978;43.846;25.952;2022-12-15T06:53:49;12.98;;;6.30;;
67065;SDS011;53978;43.846;25.952;2022-12-15T06:58:57;12.60;;;6.30;;
67065;SDS011;53978;43.846;25.952;2022-12-15T07:01:23;11.55;;;6.45;;
67065;SDS011;53978;43.846;25.952;2022-12-15T07:03:49;13.20;;;6.65;;
67065;SDS011;53978;43.846;25.952;2022-12-15T07:06:15;15.98;;;7.47;;
67065;SDS011;53978;43.846;25.952;2022-12-15T07:08:42;14.90;;;7.75;;
67065;SDS011;53978;43.846;25.952;2022-12-15T07:11:09;19.23;;;9.00;;
67065;SDS011;53978;43.846;25.952;2022-12-15T07:13:36;17.65;;;8.77;;
67065;SDS011;53978;43.846;25.952;2022-12-15T07:16:02;12.48;;;7.00;;
67065;SDS011;53978;43.846;25.952;2022-12-15T07:18:29;14.90;;;8.18;;
67065;SDS011;53978;43.846;25.952;2022-12-15T07:20:55;12.02;;;7.15;;
67065;SDS011;53978;43.846;25.952;2022-12-15T07:23:26;13.13;;;6.75;;
67065;SDS011;53978;43.846;25.952;2022-12-15T07:25:53;12.00;;;6.80;;
67065;SDS011;53978;43.846;25.952;2022-12-15T07:28:18;10.40;;;6.00;;
67065;SDS011;53978;43.846;25.952;2022-12-15T07:30:46;12.32;;;6.13;;
67065;SDS011;53978;43.846;25.952;2022-12-15T07:33:12;13.25;;;5.95;;
67065;SDS011;53978;43.846;25.952;2022-12-15T07:35:37;11.45;;;5.60;;
67065;SDS011;53978;43.846;25.952;2022-12-15T07:38:06;13.15;;;6.57;;
67065;SDS011;53978;43.846;25.952;2022-12-15T07:40:32;11.80;;;6.03;;
67065;SDS011;53978;43.846;25.952;2022-12-15T07:42:58;11.60;;;5.88;;
67065;SDS011;53978;43.846;25.952;2022-12-15T07:45:23;20.65;;;7.00;;
67065;SDS011;53978;43.846;25.952;2022-12-15T07:47:49;12.55;;;7.72;;
67065;SDS011;53978;43.846;25.952;2022-12-15T07:50:15;15.98;;;7.20;;
67065;SDS011;53978;43.846;25.952;2022-12-15T07:52:41;12.93;;;6.50;;
67065;SDS011;53978;43.846;25.952;2022-12-15T07:55:07;10.95;;;6.55;;
67065;SDS011;53978;43.846;25.952;2022-12-15T07:57:35;12.43;;;5.90;;
67065;SDS011;53978;43.846;25.952;2022-12-15T08:00:00;11.02;;;6.75;;
67065;SDS011;53978;43.846;25.952;2022-12-15T08:02:27;10.88;;;5.90;;
67065;SDS011;53978;43.846;25.952;2022-12-15T08:04:53;13.65;;;6.93;;
67065;SDS011;53978;43.846;25.952;2022-12-15T08:07:19;12.13;;;6.60;;
67065;SDS011;53978;43.846;25.952;2022-12-15T08:09:44;13.25;;;6.97;;
67065;SDS011;53978;43.846;25.952;2022-12-15T08:12:11;11.88;;;6.43;;
67065;SDS011;53978;43.846;25.952;2022-12-15T08:14:37;13.27;;;6.32;;
67065;SDS011;53978;43.846;25.952;2022-12-15T08:17:02;12.77;;;7.68;;
67065;SDS011;53978;43.846;25.952;2022-12-15T08:19:27;13.38;;;6.47;;
67065;SDS011;53978;43.846;25.952;2022-12-15T08:22:00;16.08;;;7.53;;
67065;SDS011;53978;43.846;25.952;2022-12-15T08:24:25;16.58;;;7.82;;
67065;SDS011;53978;43.846;25.952;2022-12-15T08:26:51;16.30;;;7.28;;
67065;SDS011;53978;43.846;25.952;2022-12-15T08:29:17;16.35;;;7.85;;
67065;SDS011;53978;43.846;25.952;2022-12-15T08:31:42;11.63;;;6.88;;
67065;SDS011;53978;43.846;25.952;2022-12-15T08:34:08;14.07;;;6.65;;
67065;SDS011;53978;43.846;25.952;2022-12-15T08:36:34;13.60;;;7.07;;
67065;SDS011;53978;43.846;25.952;2022-12-15T08:38:59;14.63;;;7.53;;
67065;SDS011;53978;43.846;25.952;2022-12-15T08:41:26;13.70;;;7.15;;
67065;SDS011;53978;43.846;25.952;2022-12-15T08:43:53;14.80;;;7.93;;
67065;SDS011;53978;43.846;25.952;2022-12-15T08:46:27;12.32;;;6.97;;
67065;SDS011;53978;43.846;25.952;2022-12-15T08:48:57;12.90;;;6.47;;
67065;SDS011;53978;43.846;25.952;2022-12-15T08:51:27;15.23;;;7.57;;
67065;SDS011;53978;43.846;25.952;2022-12-15T08:53:54;15.82;;;7.03;;
67065;SDS011;53978;43.846;25.952;2022-12-15T08:56:20;17.13;;;7.68;;
67065;SDS011;53978;43.846;25.952;2022-12-15T08:58:46;18.30;;;8.75;;
67065;SDS011;53978;43.846;25.952;2022-12-15T09:01:17;19.48;;;10.60;;
67065;SDS011;53978;43.846;25.952;2022-12-15T09:03:44;15.35;;;8.52;;
67065;SDS011;53978;43.846;25.952;2022-12-15T09:06:14;18.00;;;9.13;;
67065;SDS011;53978;43.846;25.952;2022-12-15T09:08:42;22.08;;;9.90;;
67065;SDS011;53978;43.846;25.952;2022-12-15T09:11:08;17.23;;;8.43;;
67065;SDS011;53978;43.846;25.952;2022-12-15T09:13:33;15.15;;;7.80;;
67065;SDS011;53978;43.846;25.952;2022-12-15T09:16:07;18.15;;;7.88;;
67065;SDS011;53978;43.846;25.952;2022-12-15T09:18:40;11.27;;;6.68;;
67065;SDS011;53978;43.846;25.952;2022-12-15T09:21:07;13.40;;;7.47;;
67065;SDS011;53978;43.846;25.952;2022-12-15T09:23:35;14.68;;;6.45;;
67065;SDS011;53978;43.846;25.952;2022-12-15T09:26:01;10.93;;;6.40;;
67065;SDS011;53978;43.846;25.952;2022-12-15T09:28:47;13.25;;;7.00;;
67065;SDS011;53978;43.846;25.952;2022-12-15T09:31:14;13.40;;;6.80;;
67065;SDS011;53978;43.846;25.952;2022-12-15T09:33:42;13.40;;;7.03;;
67065;SDS011;53978;43.846;25.952;2022-12-15T09:36:15;12.05;;;6.50;;
67065;SDS011;53978;43.846;25.952;2022-12-15T09:38:41;13.40;;;6.40;;
67065;SDS011;53978;43.846;25.952;2022-12-15T09:44:03;15.40;;;7.20;;
67065;SDS011;53978;43.846;25.952;2022-12-15T09:52:05;11.60;;;6.55;;
67065;SDS011;53978;43.846;25.952;2022-12-15T09:54:39;10.05;;;6.03;;
67065;SDS011;53978;43.846;25.952;2022-12-15T09:57:13;10.43;;;6.18;;
67065;SDS011;53978;43.846;25.952;2022-12-15T10:08:06;11.93;;;6.60;;
67065;SDS011;53978;43.846;25.952;2022-12-15T10:10:33;13.68;;;7.03;;
67065;SDS011;53978;43.846;25.952;2022-12-15T10:13:10;12.18;;;6.55;;
67065;SDS011;53978;43.846;25.952;2022-12-15T10:16:02;11.05;;;6.32;;
67065;SDS011;53978;43.846;25.952;2022-12-15T10:18:40;10.07;;;6.20;;
67065;SDS011;53978;43.846;25.952;2022-12-15T10:21:23;13.25;;;6.50;;
67065;SDS011;53978;43.846;25.952;2022-12-15T10:23:50;12.52;;;6.18;;
67065;SDS011;53978;43.846;25.952;2022-12-15T10:26:22;10.25;;;6.00;;
67065;SDS011;53978;43.846;25.952;2022-12-15T10:31:59;11.63;;;6.88;;
67065;SDS011;53978;43.846;25.952;2022-12-15T10:34:31;9.68;;;5.75;;
67065;SDS011;53978;43.846;25.952;2022-12-15T10:36:58;10.40;;;5.80;;
67065;SDS011;53978;43.846;25.952;2022-12-15T10:39:34;9.80;;;5.95;;
67065;SDS011;53978;43.846;25.952;2022-12-15T10:44:36;12.05;;;5.97;;
67065;SDS011;53978;43.846;25.952;2022-12-15T10:47:10;10.35;;;5.80;;
67065;SDS011;53978;43.846;25.952;2022-12-15T10:49:40;7.38;;;4.93;;
67065;SDS011;53978;43.846;25.952;2022-12-15T10:52:07;10.88;;;5.90;;
67065;SDS011;53978;43.846;25.952;2022-12-15T10:54:51;11.02;;;5.88;;
67065;SDS011;53978;43.846;25.952;2022-12-15T10:59:54;8.73;;;5.28;;
67065;SDS011;53978;43.846;25.952;2022-12-15T11:02:29;8.98;;;5.28;;
67065;SDS011;53978;43.846;25.952;2022-12-15T11:07:46;9.38;;;5.30;;
67065;SDS011;53978;43.846;25.952;2022-12-15T11:12:56;8.43;;;5.70;;
67065;SDS011;53978;43.846;25.952;2022-12-15T11:15:54;11.68;;;6.10;;
67065;SDS011;53978;43.846;25.952;2022-12-15T11:18:29;11.32;;;6.72;;
67065;SDS011;53978;43.846;25.952;2022-12-15T11:21:11;11.70;;;6.55;;
67065;SDS011;53978;43.846;25.952;2022-12-15T11:23:49;8.35;;;5.35;;
67065;SDS011;53978;43.846;25.952;2022-12-15T11:31:58;12.10;;;6.05;;
67065;SDS011;53978;43.846;25.952;2022-12-15T11:34:43;11.45;;;6.53;;
67065;SDS011;53978;43.846;25.952;2022-12-15T11:37:21;9.55;;;5.43;;
67065;SDS011;53978;43.846;25.952;2022-12-15T12:43:41;8.02;;;4.63;;
67065;SDS011;53978;43.846;25.952;2022-12-15T12:46:32;9.00;;;5.10;;
67065;SDS011;53978;43.846;25.952;2022-12-15T12:49:11;7.88;;;5.10;;
67065;SDS011;53978;43.846;25.952;2022-12-15T12:51:55;7.63;;;4.45;;
67065;SDS011;53978;43.846;25.952;2022-12-15T12:57:43;10.38;;;6.72;;
67065;SDS011;53978;43.846;25.952;2022-12-15T13:03:12;10.98;;;6.32;;
67065;SDS011;53978;43.846;25.952;2022-12-15T13:05:41;8.07;;;5.05;;
67065;SDS011;53978;43.846;25.952;2022-12-15T13:10:36;6.18;;;4.72;;
67065;SDS011;53978;43.846;25.952;2022-12-15T13:19:07;6.50;;;4.40;;
67065;SDS011;53978;43.846;25.952;2022-12-15T13:26:45;9.35;;;5.38;;
67065;SDS011;53978;43.846;25.952;2022-12-15T13:29:11;7.72;;;5.00;;
67065;SDS011;53978;43.846;25.952;2022-12-15T13:31:41;9.30;;;5.18;;
67065;SDS011;53978;43.846;25.952;2022-12-15T13:34:11;8.02;;;5.07;;
67065;SDS011;53978;43.846;25.952;2022-12-15T13:41:36;8.88;;;5.50;;
67065;SDS011;53978;43.846;25.952;2022-12-15T13:52:33;8.50;;;5.22;;
67065;SDS011;53978;43.846;25.952;2022-12-15T13:55:06;6.82;;;4.78;;
67065;SDS011;53978;43.846;25.952;2022-12-15T13:57:47;8.75;;;5.30;;
67065;SDS011;53978;43.846;25.952;2022-12-15T14:00:33;5.85;;;4.38;;
67065;SDS011;53978;43.846;25.952;2022-12-15T14:03:10;10.63;;;6.13;;
67065;SDS011;53978;43.846;25.952;2022-12-15T14:05:36;13.70;;;6.80;;
67065;SDS011;53978;43.846;25.952;2022-12-15T14:08:06;9.45;;;6.00;;
67065;SDS011;53978;43.846;25.952;2022-12-15T14:10:38;7.35;;;5.13;;
67065;SDS011;53978;43.846;25.952;2022-12-15T14:13:27;7.55;;;5.07;;
67065;SDS011;53978;43.846;25.952;2022-12-15T14:15:57;6.25;;;4.60;;
67065;SDS011;53978;43.846;25.952;2022-12-15T14:18:30;8.27;;;4.95;;
67065;SDS011;53978;43.846;25.952;2022-12-15T14:20:58;6.45;;;4.25;;
67065;SDS011;53978;43.846;25.952;2022-12-15T14:23:25;7.95;;;4.78;;
67065;SDS011;53978;43.846;25.952;2022-12-15T14:26:03;6.18;;;4.20;;
67065;SDS011;53978;43.846;25.952;2022-12-15T14:28:33;7.30;;;4.75;;
67065;SDS011;53978;43.846;25.952;2022-12-15T14:31:06;5.88;;;4.28;;
67065;SDS011;53978;43.846;25.952;2022-12-15T14:33:36;6.03;;;4.80;;
67065;SDS011;53978;43.846;25.952;2022-12-15T14:36:05;7.20;;;4.47;;
67065;SDS011;53978;43.846;25.952;2022-12-15T14:41:00;7.32;;;4.80;;
67065;SDS011;53978;43.846;25.952;2022-12-15T14:43:27;9.95;;;4.45;;
67065;SDS011;53978;43.846;25.952;2022-12-15T14:46:04;7.45;;;4.93;;
67065;SDS011;53978;43.846;25.952;2022-12-15T14:48:33;10.05;;;6.53;;
67065;SDS011;53978;43.846;25.952;2022-12-15T14:51:00;8.75;;;5.75;;
67065;SDS011;53978;43.846;25.952;2022-12-15T14:53:30;7.20;;;4.90;;
67065;SDS011;53978;43.846;25.952;2022-12-15T14:58:53;7.07;;;4.68;;
67065;SDS011;53978;43.846;25.952;2022-12-15T15:01:28;7.20;;;4.65;;
67065;SDS011;53978;43.846;25.952;2022-12-15T15:03:58;7.50;;;4.68;;
67065;SDS011;53978;43.846;25.952;2022-12-15T15:06:30;6.78;;;4.63;;
67065;SDS011;53978;43.846;25.952;2022-12-15T15:09:17;11.70;;;6.47;;
67065;SDS011;53978;43.846;25.952;2022-12-15T15:11:49;9.40;;;6.00;;
67065;SDS011;53978;43.846;25.952;2022-12-15T15:14:23;6.72;;;4.65;;
67065;SDS011;53978;43.846;25.952;2022-12-15T15:17:00;6.40;;;4.63;;
67065;SDS011;53978;43.846;25.952;2022-12-15T15:19:26;8.37;;;4.97;;
67065;SDS011;53978;43.846;25.952;2022-12-15T15:21:52;6.90;;;4.85;;
67065;SDS011;53978;43.846;25.952;2022-12-15T15:24:22;8.38;;;5.63;;
67065;SDS011;53978;43.846;25.952;2022-12-15T15:27:25;7.82;;;4.82;;
67065;SDS011;53978;43.846;25.952;2022-12-15T15:29:51;14.32;;;7.95;;
67065;SDS011;53978;43.846;25.952;2022-12-15T15:32:18;8.77;;;5.88;;
67065;SDS011;53978;43.846;25.952;2022-12-15T15:34:45;10.20;;;6.38;;
67065;SDS011;53978;43.846;25.952;2022-12-15T15:39:43;13.70;;;7.15;;
67065;SDS011;53978;43.846;25.952;2022-12-15T15:42:11;8.73;;;5.70;;
67065;SDS011;53978;43.846;25.952;2022-12-15T15:44:40;8.57;;;5.53;;
67065;SDS011;53978;43.846;25.952;2022-12-15T15:47:06;26.48;;;14.38;;
67065;SDS011;53978;43.846;25.952;2022-12-15T15:49:44;14.85;;;9.10;;
67065;SDS011;53978;43.846;25.952;2022-12-15T15:52:10;10.82;;;7.60;;
67065;SDS011;53978;43.846;25.952;2022-12-15T15:54:44;11.35;;;7.88;;
67065;SDS011;53978;43.846;25.952;2022-12-15T15:57:13;14.52;;;7.80;;
67065;SDS011;53978;43.846;25.952;2022-12-15T15:59:40;11.40;;;6.68;;
67065;SDS011;53978;43.846;25.952;2022-12-15T16:02:08;8.15;;;5.10;;
67065;SDS011;53978;43.846;25.952;2022-12-15T16:04:41;7.80;;;5.25;;
67065;SDS011;53978;43.846;25.952;2022-12-15T16:07:14;10.25;;;6.30;;
67065;SDS011;53978;43.846;25.952;2022-12-15T16:09:45;8.13;;;5.78;;
67065;SDS011;53978;43.846;25.952;2022-12-15T16:12:22;13.07;;;8.55;;
67065;SDS011;53978;43.846;25.952;2022-12-15T16:14:51;13.60;;;7.55;;
67065;SDS011;53978;43.846;25.952;2022-12-15T16:17:17;13.45;;;7.32;;
67065;SDS011;53978;43.846;25.952;2022-12-15T16:19:45;9.82;;;6.47;;
67065;SDS011;53978;43.846;25.952;2022-12-15T16:22:17;12.18;;;6.88;;
67065;SDS011;53978;43.846;25.952;2022-12-15T16:24:44;12.63;;;7.63;;
67065;SDS011;53978;43.846;25.952;2022-12-15T16:27:10;14.07;;;8.00;;
67065;SDS011;53978;43.846;25.952;2022-12-15T16:29:38;11.95;;;7.28;;
67065;SDS011;53978;43.846;25.952;2022-12-15T16:32:04;11.85;;;6.80;;
67065;SDS011;53978;43.846;25.952;2022-12-15T16:34:30;12.52;;;7.00;;
67065;SDS011;53978;43.846;25.952;2022-12-15T16:36:56;15.18;;;8.95;;
67065;SDS011;53978;43.846;25.952;2022-12-15T16:39:32;12.70;;;7.40;;
67065;SDS011;53978;43.846;25.952;2022-12-15T16:41:58;11.75;;;6.82;;
67065;SDS011;53978;43.846;25.952;2022-12-15T16:44:24;9.25;;;5.63;;
67065;SDS011;53978;43.846;25.952;2022-12-15T16:46:50;8.45;;;5.25;;
67065;SDS011;53978;43.846;25.952;2022-12-15T16:49:17;12.45;;;6.95;;
67065;SDS011;53978;43.846;25.952;2022-12-15T16:51:45;11.13;;;6.78;;
67065;SDS011;53978;43.846;25.952;2022-12-15T16:54:16;10.00;;;6.10;;
67065;SDS011;53978;43.846;25.952;2022-12-15T16:56:46;9.32;;;5.90;;
67065;SDS011;53978;43.846;25.952;2022-12-15T16:59:16;10.65;;;6.22;;
67065;SDS011;53978;43.846;25.952;2022-12-15T17:01:42;11.13;;;6.22;;
67065;SDS011;53978;43.846;25.952;2022-12-15T17:04:15;8.10;;;5.75;;
67065;SDS011;53978;43.846;25.952;2022-12-15T17:09:16;10.57;;;6.10;;
67065;SDS011;53978;43.846;25.952;2022-12-15T17:11:44;10.90;;;6.82;;
67065;SDS011;53978;43.846;25.952;2022-12-15T17:14:09;9.82;;;6.38;;
67065;SDS011;53978;43.846;25.952;2022-12-15T17:16:35;14.90;;;6.97;;
67065;SDS011;53978;43.846;25.952;2022-12-15T17:19:00;9.55;;;6.13;;
67065;SDS011;53978;43.846;25.952;2022-12-15T17:21:34;9.88;;;5.78;;
67065;SDS011;53978;43.846;25.952;2022-12-15T17:24:05;10.57;;;6.22;;
67065;SDS011;53978;43.846;25.952;2022-12-15T17:26:33;8.80;;;5.60;;
67065;SDS011;53978;43.846;25.952;2022-12-15T17:29:00;9.45;;;5.95;;
67065;SDS011;53978;43.846;25.952;2022-12-15T17:31:33;11.27;;;6.15;;
67065;SDS011;53978;43.846;25.952;2022-12-15T17:33:58;13.40;;;8.05;;
67065;SDS011;53978;43.846;25.952;2022-12-15T17:36:25;12.93;;;7.55;;
67065;SDS011;53978;43.846;25.952;2022-12-15T17:38:53;11.38;;;6.32;;
67065;SDS011;53978;43.846;25.952;2022-12-15T17:41:22;13.90;;;7.65;;
67065;SDS011;53978;43.846;25.952;2022-12-15T17:43:47;11.73;;;6.45;;
67065;SDS011;53978;43.846;25.952;2022-12-15T17:46:15;10.75;;;6.50;;
67065;SDS011;53978;43.846;25.952;2022-12-15T17:48:41;8.25;;;5.53;;
67065;SDS011;53978;43.846;25.952;2022-12-15T17:51:11;11.10;;;6.68;;